Westmoreland, Virginia
Current Conditions -  °F | °C
As of 4:53 PM on Friday 24 Oct 2014 (Local Time) from KNUI Reporting Station
Clear Clear  
Wind Chill: 64°   Ceiling: Unl
Heat Index: 64°   Visibility: 10mi
Dew Point: 42°   Wind: 10mph
Humidity: 45%   Direction: 270°W
Pressure: 29.89"   Gusts: NA
Location:  38.06°N, 76.55°W
Report Text: KNUI 242053Z AUTO 27009KT 10SM CLR 18/06 A2989 RMK AO2 SLP120 T01780056 56004 $
Loading
Personal Weather Stations






























Interactive Weather Map New forecast layout! Learn more

10-Day Weather Forecast

Advertisements
Track Severe Weather on mobile